Time;durP1;ratioP1;P1;durP2;ratioP2;P2;SDS_P1;SDS_P2;PMS_P1;PMS_P2;Temp;Humidity;BMP_temperature;BMP_pressure;BME280_temperature;BME280_humidity;BME280_pressure;Samples;Min_cycle;Max_cycle;Signal;HPM_P1;HPM_P2
2022/02/19 00:02:19;;;;;;;4.72;1.15;;;7.90;60.50;;;;;;5027498;28;20021;-78
2022/02/19 00:04:45;;;;;;;4.78;1.80;;;7.90;60.50;;;;;;5027568;28;20084;-79
2022/02/19 00:07:11;;;;;;;6.60;1.05;;;7.90;60.50;;;;;;5027431;28;20037;-79
2022/02/19 00:09:37;;;;;;;7.07;1.35;;;7.90;60.50;;;;;;5010046;28;20425;-78
2022/02/19 00:12:04;;;;;;;6.45;1.45;;;7.90;60.50;;;;;;5027543;28;20018;-78
2022/02/19 00:14:30;;;;;;;6.97;1.20;;;7.90;60.40;;;;;;5027870;28;20037;-78
2022/02/19 00:16:56;;;;;;;4.30;1.50;;;7.90;60.40;;;;;;5009403;28;20025;-78
2022/02/19 00:19:23;;;;;;;5.82;1.00;;;7.90;60.50;;;;;;5026609;28;20446;-79
2022/02/19 00:21:49;;;;;;;5.25;1.33;;;7.80;60.20;;;;;;5027478;28;20492;-77
2022/02/19 00:24:15;;;;;;;4.70;1.63;;;7.90;60.40;;;;;;5027306;28;20042;-77
2022/02/19 00:26:41;;;;;;;5.82;1.52;;;7.90;60.40;;;;;;5027447;28;20388;-79
2022/02/19 00:29:07;;;;;;;5.38;1.45;;;7.90;60.40;;;;;;5027353;28;20377;-78
2022/02/19 00:31:34;;;;;;;5.82;1.55;;;7.80;60.30;;;;;;5009492;28;20058;-76
2022/02/19 00:34:00;;;;;;;6.53;1.40;;;7.80;60.30;;;;;;5027646;28;20030;-79
2022/02/19 00:36:27;;;;;;;3.42;0.93;;;7.90;60.40;;;;;;5009363;28;20029;-78
2022/02/19 00:38:53;;;;;;;4.07;1.40;;;7.80;60.80;;;;;;5009568;28;20873;-79
2022/02/19 00:41:19;;;;;;;7.60;1.60;;;7.80;60.30;;;;;;5027231;28;20116;-78
2022/02/19 00:43:45;;;;;;;3.78;1.08;;;7.80;60.30;;;;;;5009470;28;20072;-78
2022/02/19 00:46:12;;;;;;;6.18;1.38;;;7.80;60.80;;;;;;5027028;28;20070;-79
2022/02/19 00:48:38;;;;;;;5.72;1.50;;;7.80;60.30;;;;;;5026775;28;20033;-79
2022/02/19 00:51:05;;;;;;;4.65;1.10;;;7.80;60.30;;;;;;5026977;28;20484;-80
2022/02/19 00:53:34;;;;;;;4.03;1.10;;;7.80;60.20;;;;;;5009426;28;20393;-81
2022/02/19 00:56:00;;;;;;;3.75;1.10;;;7.90;60.40;;;;;;5009205;28;20025;-79
2022/02/19 00:58:27;;;;;;;5.10;1.00;;;7.90;60.40;;;;;;5009595;28;20396;-79
2022/02/19 01:00:53;;;;;;;6.55;1.20;;;7.90;60.30;;;;;;5009966;28;20116;-79
2022/02/19 01:03:33;;;;;;;4.53;0.95;;;7.90;60.30;;;;;;5012770;28;20026;-79
2022/02/19 01:06:00;;;;;;;7.15;1.42;;;7.90;60.30;;;;;;5013318;28;20086;-79
2022/02/19 01:08:26;;;;;;;6.15;0.98;;;7.90;60.30;;;;;;4996944;28;20025;-79
2022/02/19 01:10:52;;;;;;;6.22;1.30;;;7.90;60.40;;;;;;5013140;28;20025;-79
2022/02/19 01:13:19;;;;;;;7.05;1.45;;;7.80;60.20;;;;;;5030723;28;20539;-78
2022/02/19 01:15:45;;;;;;;6.22;2.08;;;7.80;60.20;;;;;;5013011;28;20036;-79
2022/02/19 01:18:12;;;;;;;7.00;1.17;;;7.80;60.20;;;;;;5014463;28;20439;-77
2022/02/19 01:20:41;;;;;;;5.60;0.90;;;7.80;60.20;;;;;;5032995;28;20293;-77
2022/02/19 01:23:08;;;;;;;5.55;1.13;;;7.80;60.30;;;;;;5032550;28;20089;-77
2022/02/19 01:25:35;;;;;;;5.47;1.30;;;7.70;60.10;;;;;;5032695;28;20115;-77
2022/02/19 01:28:01;;;;;;;7.05;1.63;;;7.70;60.20;;;;;;5033462;28;20060;-77
2022/02/19 01:30:27;;;;;;;8.00;1.17;;;7.70;60.20;;;;;;5016805;28;20044;-78
2022/02/19 01:32:58;;;;;;;5.35;1.45;;;7.70;60.30;;;;;;5025495;28;20037;-77
2022/02/19 01:35:26;;;;;;;8.20;1.90;;;7.70;60.30;;;;;;5028761;28;20120;-77
2022/02/19 01:37:52;;;;;;;2.85;0.93;;;7.60;60.10;;;;;;5012304;28;20025;-79
2022/02/19 01:40:20;;;;;;;4.95;1.23;;;7.60;60.10;;;;;;5048037;28;20035;-77
2022/02/19 01:42:46;;;;;;;5.47;1.55;;;7.60;60.20;;;;;;5031928;28;20041;-78
2022/02/19 01:45:14;;;;;;;3.95;1.05;;;7.60;60.20;;;;;;5032098;28;20086;-79
2022/02/19 01:47:41;;;;;;;6.15;1.50;;;7.60;60.20;;;;;;5031926;28;20037;-79
2022/02/19 01:50:10;;;;;;;4.68;0.95;;;7.50;60.10;;;;;;5032018;28;20033;-79
2022/02/19 01:52:41;;;;;;;7.20;1.40;;;7.60;60.30;;;;;;5031941;28;20543;-77
2022/02/19 01:55:10;;;;;;;;;;;7.60;60.30;;;;;;5032356;28;20041;-78
2022/02/19 01:57:44;;;;;;;8.05;1.48;;;7.60;60.30;;;;;;5048896;28;19963;-78
2022/02/19 02:00:36;;;;;;;6.13;1.13;;;7.50;60.10;;;;;;5019438;28;20049;-78
2022/02/19 02:03:21;;;;;;;6.55;1.48;;;7.50;60.10;;;;;;5050654;28;20033;-78
2022/02/19 02:05:53;;;;;;;6.35;1.50;;;7.50;60.20;;;;;;5033166;28;20032;-79
2022/02/19 02:08:21;;;;;;;3.40;1.10;;;7.50;60.20;;;;;;5032978;28;20491;-79
2022/02/19 02:10:50;;;;;;;4.55;1.50;;;7.50;60.20;;;;;;5033650;28;20033;-78
2022/02/19 02:13:31;;;;;;;;;;;7.50;60.20;;;;;;5032164;28;20031;-79
2022/02/19 02:15:58;;;;;;;6.80;1.40;;;7.50;60.20;;;;;;5016739;28;19909;-80
2022/02/19 02:18:44;;;;;;;6.45;1.30;;;7.40;60.00;;;;;;5031599;28;20503;-79
2022/02/19 02:21:11;;;;;;;4.25;0.80;;;7.50;60.20;;;;;;5031630;28;20039;-79
2022/02/19 02:23:38;;;;;;;6.65;1.40;;;7.40;60.10;;;;;;5032008;28;20518;-78
2022/02/19 02:26:09;;;;;;;4.55;1.17;;;7.40;60.10;;;;;;5031705;28;20044;-79
2022/02/19 02:28:35;;;;;;;4.63;1.63;;;7.40;60.20;;;;;;5031636;28;20039;-79
2022/02/19 02:31:05;;;;;;;6.55;1.10;;;7.40;60.20;;;;;;5030894;28;20048;-78
2022/02/19 02:33:32;;;;;;;4.40;1.55;;;7.40;60.20;;;;;;5030988;28;20029;-77
2022/02/19 02:36:08;;;;;;;5.63;1.33;;;7.40;60.20;;;;;;5031570;28;20052;-77
2022/02/19 02:38:41;;;;;;;5.43;1.70;;;7.40;60.20;;;;;;5031247;28;20419;-77
2022/02/19 02:41:08;;;;;;;5.85;1.30;;;7.40;60.20;;;;;;5031232;28;20387;-77
2022/02/19 02:43:34;;;;;;;8.75;2.50;;;7.40;60.20;;;;;;5048944;28;20039;-77
2022/02/19 02:46:02;;;;;;;4.68;1.27;;;7.40;60.70;;;;;;5031183;28;20388;-77
2022/02/19 02:48:28;;;;;;;6.65;2.00;;;7.40;60.20;;;;;;5052284;28;20123;-77
2022/02/19 02:50:56;;;;;;;5.55;1.30;;;7.40;60.20;;;;;;5017886;28;20514;-78
2022/02/19 02:53:24;;;;;;;8.35;2.03;;;7.40;60.20;;;;;;5034524;28;20025;-78
2022/02/19 02:55:50;;;;;;;5.18;1.70;;;7.40;60.20;;;;;;5034137;28;20025;-78
2022/02/19 02:58:17;;;;;;;4.75;1.27;;;7.40;60.20;;;;;;5034189;28;20033;-78
2022/02/19 03:00:43;;;;;;;4.85;1.48;;;7.40;60.10;;;;;;5034506;28;20369;-78
2022/02/19 03:03:10;;;;;;;6.13;0.98;;;7.40;60.10;;;;;;5033926;28;20025;-77
2022/02/19 03:05:37;;;;;;;7.80;1.23;;;7.30;60.00;;;;;;5033931;28;20040;-78
2022/02/19 03:08:04;;;;;;;3.33;1.27;;;7.40;60.10;;;;;;5033726;28;20047;-78
2022/02/19 03:10:30;;;;;;;10.80;2.33;;;7.40;60.20;;;;;;5034019;28;20162;-78
2022/02/19 03:12:57;;;;;;;6.90;1.67;;;7.30;60.00;;;;;;5034340;28;20025;-78
2022/02/19 03:15:26;;;;;;;5.18;2.13;;;7.30;60.00;;;;;;5034114;28;20040;-77
2022/02/19 03:17:53;;;;;;;5.65;1.48;;;7.30;60.00;;;;;;5033465;28;20025;-78
2022/02/19 03:20:21;;;;;;;8.95;1.73;;;7.30;60.00;;;;;;5033439;28;20029;-77
2022/02/19 03:22:48;;;;;;;6.35;1.40;;;7.30;60.00;;;;;;5037746;28;20029;-78
2022/02/19 03:25:18;;;;;;;5.90;1.90;;;7.30;60.00;;;;;;5039020;28;20037;-78
2022/02/19 03:27:46;;;;;;;8.30;1.65;;;7.30;60.00;;;;;;5023821;28;20036;-78
2022/02/19 03:30:18;;;;;;;4.57;1.35;;;7.30;60.00;;;;;;5040502;28;20028;-80
2022/02/19 03:32:45;;;;;;;3.70;1.15;;;7.30;60.00;;;;;;5037332;28;20036;-78
2022/02/19 03:35:16;;;;;;;3.08;1.20;;;7.30;60.00;;;;;;5020701;28;20322;-79
2022/02/19 03:37:43;;;;;;;5.38;1.85;;;7.30;60.00;;;;;;5037362;28;20032;-79
2022/02/19 03:40:17;;;;;;;4.10;1.15;;;7.30;60.00;;;;;;5034854;28;20029;-79
2022/02/19 03:42:45;;;;;;;4.10;1.30;;;7.20;59.90;;;;;;5033803;28;20021;-79
2022/02/19 03:45:13;;;;;;;7.00;1.38;;;7.20;59.80;;;;;;5017113;28;20063;-79
2022/02/19 03:47:44;;;;;;;7.28;1.88;;;7.20;59.80;;;;;;5050882;28;20084;-78
2022/02/19 03:50:17;;;;;;;5.65;1.20;;;7.30;60.00;;;;;;5033284;28;20071;-79
2022/02/19 03:52:45;;;;;;;5.15;1.30;;;7.20;59.80;;;;;;5033372;28;20020;-79
2022/02/19 03:55:24;;;;;;;7.82;1.80;;;7.30;60.00;;;;;;5033291;28;20426;-79
2022/02/19 03:57:52;;;;;;;6.30;1.25;;;7.20;59.80;;;;;;5033746;28;20080;-78
2022/02/19 04:00:18;;;;;;;5.18;1.15;;;7.20;59.80;;;;;;5034516;28;20041;-79
2022/02/19 04:02:48;;;;;;;5.70;1.40;;;7.20;59.80;;;;;;5033665;28;20103;-78
2022/02/19 04:05:21;;;;;;;7.65;1.55;;;7.20;59.80;;;;;;5033288;28;20066;-78
2022/02/19 04:07:47;;;;;;;6.13;1.15;;;7.20;59.80;;;;;;5016744;28;20036;-79
2022/02/19 04:10:20;;;;;;;9.05;2.72;;;7.20;59.90;;;;;;5033235;28;20033;-78
2022/02/19 04:12:47;;;;;;;5.20;0.98;;;7.10;59.70;;;;;;5033091;28;20029;-79
2022/02/19 04:15:23;;;;;;;5.05;1.40;;;7.20;59.90;;;;;;5051003;28;20039;-79
2022/02/19 04:17:51;;;;;;;5.35;1.60;;;7.10;59.70;;;;;;5016342;28;20029;-79
2022/02/19 04:20:18;;;;;;;4.57;1.15;;;7.10;59.80;;;;;;5015904;28;20480;-80
2022/02/19 04:22:44;;;;;;;5.35;0.95;;;7.10;59.70;;;;;;5032551;28;20056;-79
2022/02/19 04:25:12;;;;;;;6.10;1.77;;;7.10;59.80;;;;;;5032599;28;20079;-78
2022/02/19 04:27:40;;;;;;;5.13;1.20;;;7.10;59.80;;;;;;5032661;28;20031;-79
2022/02/19 04:30:07;;;;;;;4.68;1.20;;;7.10;59.70;;;;;;5033730;28;20500;-79
2022/02/19 04:32:37;;;;;;;4.85;1.23;;;7.10;59.70;;;;;;5034601;28;20039;-78
2022/02/19 04:35:06;;;;;;;3.95;1.02;;;7.10;59.70;;;;;;5017734;28;20025;-78
2022/02/19 04:37:37;;;;;;;7.72;1.35;;;7.10;59.80;;;;;;5033367;28;20031;-78
2022/02/19 04:40:06;;;;;;;4.43;1.42;;;7.10;59.80;;;;;;5032690;28;20039;-78
2022/02/19 04:42:34;;;;;;;2.42;0.80;;;7.10;59.80;;;;;;5033105;28;20032;-78
2022/02/19 04:45:12;;;;;;;6.75;1.15;;;7.10;59.80;;;;;;5017366;28;20124;-78
2022/02/19 04:47:46;;;;;;;7.15;2.10;;;7.10;59.80;;;;;;5016068;28;20084;-78
2022/02/19 04:50:15;;;;;;;6.68;1.40;;;7.10;59.80;;;;;;5032534;28;20060;-78
2022/02/19 04:52:43;;;;;;;4.30;1.60;;;7.10;59.80;;;;;;5032221;28;20112;-78
2022/02/19 04:55:12;;;;;;;7.43;1.63;;;7.10;59.80;;;;;;5032425;28;20043;-78
2022/02/19 04:57:43;;;;;;;6.97;1.88;;;7.10;59.80;;;;;;5032687;28;20061;-78
2022/02/19 05:00:16;;;;;;;5.47;1.25;;;7.10;59.70;;;;;;5031885;28;20098;-78
2022/02/19 05:03:11;;;;;;;4.22;1.38;;;7.10;59.70;;;;;;4977973;28;20042;-77
2022/02/19 05:05:45;;;;;;;4.95;1.52;;;7.10;59.70;;;;;;5032171;28;20036;-77
2022/02/19 05:08:11;;;;;;;5.72;0.90;;;7.10;59.60;;;;;;5015485;28;20037;-78
2022/02/19 05:10:37;;;;;;;4.43;1.08;;;7.10;59.60;;;;;;5032273;28;20039;-78
2022/02/19 05:13:04;;;;;;;4.10;1.35;;;7.10;59.60;;;;;;5032076;28;20083;-78
2022/02/19 05:15:31;;;;;;;4.63;0.77;;;7.10;59.70;;;;;;5032014;28;20033;-78
2022/02/19 05:18:17;;;;;;;5.80;1.35;;;7.10;59.60;;;;;;5031586;28;20031;-79
2022/02/19 05:20:44;;;;;;;8.35;1.33;;;7.10;59.60;;;;;;5032072;28;20037;-78
2022/02/19 05:23:10;;;;;;;4.40;1.23;;;7.10;59.60;;;;;;5032249;28;20040;-78
2022/02/19 05:25:40;;;;;;;5.75;1.33;;;7.00;59.50;;;;;;5031808;28;20032;-78
2022/02/19 05:28:09;;;;;;;6.72;1.23;;;7.10;59.70;;;;;;5031775;28;20036;-79
2022/02/19 05:30:36;;;;;;;5.70;1.33;;;7.10;59.70;;;;;;5015658;28;20037;-78
2022/02/19 05:33:21;;;;;;;7.00;1.23;;;7.10;59.70;;;;;;5049781;28;20249;-80
2022/02/19 05:35:49;;;;;;;5.00;1.17;;;7.10;59.70;;;;;;5031938;28;20523;-78
2022/02/19 05:38:15;;;;;;;4.68;1.38;;;7.10;59.70;;;;;;5015539;28;20146;-79
2022/02/19 05:40:41;;;;;;;4.63;1.17;;;7.10;59.70;;;;;;5015164;28;20139;-77
2022/02/19 05:43:09;;;;;;;4.55;1.45;;;7.10;59.70;;;;;;5015720;28;20044;-78
2022/02/19 05:45:36;;;;;;;5.60;1.15;;;7.00;59.60;;;;;;5031834;28;20029;-78
2022/02/19 05:48:03;;;;;;;6.97;1.15;;;7.00;59.60;;;;;;5023296;28;20041;-78
2022/02/19 05:50:50;;;;;;;4.75;1.20;;;7.00;59.60;;;;;;5029615;28;20087;-78
2022/02/19 05:53:39;;;;;;;5.50;1.63;;;7.00;59.70;;;;;;5028950;28;20061;-78
2022/02/19 05:56:05;;;;;;;11.00;2.55;;;7.00;59.70;;;;;;5011604;28;20125;-77
2022/02/19 05:58:33;;;;;;;4.60;1.30;;;7.00;59.70;;;;;;5004861;28;20037;-78
2022/02/19 06:01:15;;;;;;;4.70;1.13;;;7.00;59.70;;;;;;5031287;28;20025;-78
2022/02/19 06:03:46;;;;;;;6.10;1.65;;;6.90;59.60;;;;;;5014964;28;20533;-78
2022/02/19 06:06:16;;;;;;;5.90;1.33;;;7.00;59.80;;;;;;5031328;28;20057;-79
2022/02/19 06:08:43;;;;;;;6.85;1.25;;;6.90;59.60;;;;;;5031418;28;20032;-78
2022/02/19 06:11:10;;;;;;;5.68;1.58;;;7.00;59.80;;;;;;5048902;28;20032;-77
2022/02/19 06:13:54;;;;;;;4.05;1.08;;;7.00;59.80;;;;;;5033731;28;20063;-77
2022/02/19 06:16:25;;;;;;;6.70;1.95;;;6.90;59.60;;;;;;5031657;28;20383;-77
2022/02/19 06:19:01;;;;;;;4.20;1.20;;;7.00;59.90;;;;;;5031892;28;20353;-78
2022/02/19 06:21:28;;;;;;;6.68;1.38;;;7.00;59.80;;;;;;5030688;28;20153;-78
2022/02/19 06:23:54;;;;;;;5.35;1.05;;;7.00;59.80;;;;;;5031238;28;20082;-79
2022/02/19 06:26:20;;;;;;;9.32;2.55;;;7.00;59.80;;;;;;5048717;28;20021;-78
2022/02/19 06:29:01;;;;;;;4.00;1.23;;;7.00;59.80;;;;;;5021760;28;20570;-78
2022/02/19 06:31:29;;;;;;;4.55;1.17;;;7.00;59.80;;;;;;5012006;28;20029;-78
2022/02/19 06:33:55;;;;;;;4.85;1.30;;;7.00;59.80;;;;;;5011840;28;20480;-79
2022/02/19 06:36:23;;;;;;;4.32;1.30;;;7.00;59.80;;;;;;5011396;28;20026;-78
2022/02/19 06:38:52;;;;;;;2.97;1.02;;;7.00;59.80;;;;;;5022646;28;20060;-78
2022/02/19 06:41:28;;;;;;;3.95;0.93;;;7.00;59.90;;;;;;5031385;28;20028;-78
2022/02/19 06:44:07;;;;;;;2.75;1.15;;;7.00;59.90;;;;;;5031034;28;20511;-79
2022/02/19 06:46:34;;;;;;;6.13;1.50;;;7.00;59.90;;;;;;5027771;28;20042;-78
2022/02/19 06:49:02;;;;;;;5.30;0.80;;;6.90;59.70;;;;;;5016973;28;20125;-77
2022/02/19 06:51:34;;;;;;;;;;;6.90;59.80;;;;;;5032992;28;20025;-76
2022/02/19 06:54:01;;;;;;;3.88;0.80;;;6.90;59.90;;;;;;5025430;28;19955;-77
2022/02/19 06:56:30;;;;;;;5.90;1.52;;;6.90;59.90;;;;;;5017125;28;20025;-77
2022/02/19 06:58:59;;;;;;;6.35;0.95;;;6.80;59.70;;;;;;4998782;28;20041;-77
2022/02/19 07:01:27;;;;;;;6.10;1.20;;;6.90;60.00;;;;;;5008101;28;20030;-77
2022/02/19 07:03:58;;;;;;;2.30;1.30;;;6.90;60.00;;;;;;5009541;28;20120;-77
2022/02/19 07:06:47;;;;;;;6.93;1.33;;;6.80;59.90;;;;;;5005274;28;20735;-78
2022/02/19 07:09:13;;;;;;;8.27;1.40;;;6.80;59.90;;;;;;5009144;28;20485;-78
2022/02/19 07:11:40;;;;;;;1.85;1.10;;;6.80;59.90;;;;;;4993578;28;20117;-79
2022/02/19 07:14:08;;;;;;;4.53;1.80;;;6.80;60.00;;;;;;5008296;28;20026;-78
2022/02/19 07:16:34;;;;;;;4.50;1.45;;;6.70;59.80;;;;;;5008211;28;20076;-79
2022/02/19 07:19:01;;;;;;;4.55;1.98;;;6.80;60.00;;;;;;5007134;28;20155;-77
2022/02/19 07:21:27;;;;;;;4.55;1.25;;;6.70;59.90;;;;;;5008691;28;20255;-78
2022/02/19 07:23:54;;;;;;;5.53;1.10;;;6.70;59.90;;;;;;5025804;28;20066;-77
2022/02/19 07:26:25;;;;;;;4.70;1.25;;;6.70;59.90;;;;;;5022055;28;20095;-75
2022/02/19 07:28:53;;;;;;;5.80;1.05;;;6.70;60.00;;;;;;5034043;28;20512;-76
2022/02/19 07:31:23;;;;;;;2.75;1.00;;;6.70;60.00;;;;;;5013291;28;20489;-79
2022/02/19 07:33:49;;;;;;;3.15;1.13;;;6.80;60.10;;;;;;5018164;28;20496;-83
2022/02/19 07:36:23;;;;;;;2.33;0.88;;;6.80;60.10;;;;;;5007082;28;20040;-77
2022/02/19 07:38:51;;;;;;;5.68;1.75;;;6.80;60.10;;;;;;4995397;28;20037;-74
2022/02/19 07:41:17;;;;;;;2.70;0.88;;;6.80;60.00;;;;;;5026478;28;20124;-75
2022/02/19 07:44:02;;;;;;;7.07;1.20;;;6.80;60.00;;;;;;5014775;28;20109;-78
2022/02/19 07:47:03;;;;;;;4.05;0.93;;;6.90;60.10;;;;;;5031937;28;20072;-77
2022/02/19 07:58:45;;;;;;;3.45;1.58;;;7.00;60.10;;;;;;5015602;28;20041;-77
2022/02/19 08:01:13;;;;;;;5.75;1.17;;;7.00;60.00;;;;;;5010289;28;20026;-77
2022/02/19 08:03:45;;;;;;;2.45;1.10;;;7.00;60.00;;;;;;5030382;28;20040;-77
2022/02/19 08:06:11;;;;;;;4.10;1.30;;;7.00;59.90;;;;;;5009463;28;20502;-78
2022/02/19 08:08:41;;;;;;;4.80;1.27;;;7.10;60.10;;;;;;5003257;28;20115;-78
2022/02/19 08:11:29;;;;;;;2.13;0.82;;;7.10;60.00;;;;;;5014693;28;20444;-78
2022/02/19 08:13:55;;;;;;;4.25;1.00;;;7.10;60.00;;;;;;5036573;28;20025;-79
2022/02/19 08:16:22;;;;;;;3.95;1.23;;;7.20;60.10;;;;;;5029741;28;20040;-79
2022/02/19 08:18:50;;;;;;;3.13;1.02;;;7.20;60.10;;;;;;5016511;28;20087;-80
2022/02/19 08:21:23;;;;;;;4.13;0.85;;;7.30;60.20;;;;;;5027259;28;20049;-77
2022/02/19 08:23:49;;;;;;;3.35;0.80;;;7.30;60.10;;;;;;5009083;28;20030;-78
2022/02/19 08:26:24;;;;;;;4.93;1.83;;;7.40;60.20;;;;;;5027025;28;20030;-77
2022/02/19 08:28:54;;;;;;;1.88;0.68;;;7.50;60.20;;;;;;5008700;28;20603;-78
2022/02/19 08:31:21;;;;;;;3.75;1.70;;;7.60;60.30;;;;;;5011284;28;20052;-84
2022/02/19 08:33:48;;;;;;;3.90;0.90;;;7.60;60.10;;;;;;5009343;28;20104;-76
2022/02/19 08:36:14;;;;;;;5.13;1.05;;;7.70;60.20;;;;;;5024541;28;20025;-74
2022/02/19 08:38:40;;;;;;;3.35;1.05;;;7.80;60.30;;;;;;5037061;28;20029;-78
2022/02/19 08:41:06;;;;;;;2.92;1.00;;;7.80;60.20;;;;;;5009460;28;20040;-79
2022/02/19 08:43:33;;;;;;;4.75;1.52;;;7.90;60.30;;;;;;5014583;28;20033;-79
2022/02/19 08:45:59;;;;;;;2.75;1.00;;;7.90;60.60;;;;;;5035301;28;20033;-79
2022/02/19 08:48:26;;;;;;;7.72;1.30;;;8.10;61.90;;;;;;5034137;28;20475;-79
2022/02/19 08:50:53;;;;;;;9.48;1.52;;;8.40;62.80;;;;;;5029281;28;20082;-78
2022/02/19 08:53:23;;;;;;;6.53;1.45;;;8.60;63.20;;;;;;5046179;28;20047;-78
2022/02/19 08:55:49;;;;;;;8.43;1.60;;;8.90;63.70;;;;;;5021974;28;20055;-77
2022/02/19 08:58:16;;;;;;;9.32;1.55;;;9.10;63.90;;;;;;5018756;28;20071;-78
2022/02/19 09:00:42;;;;;;;5.40;1.35;;;9.40;64.30;;;;;;5031396;28;20112;-77
2022/02/19 09:03:08;;;;;;;7.10;2.20;;;9.50;64.30;;;;;;5036887;28;20025;-77
2022/02/19 09:05:34;;;;;;;5.20;1.00;;;9.80;64.80;;;;;;5038830;28;20399;-78
2022/02/19 09:08:00;;;;;;;5.15;1.17;;;9.80;64.70;;;;;;5041457;28;20025;-78
2022/02/19 09:10:26;;;;;;;5.57;1.30;;;10.00;65.10;;;;;;5037629;28;20087;-78
2022/02/19 09:12:54;;;;;;;3.97;0.95;;;10.10;65.20;;;;;;5018193;28;20021;-78
2022/02/19 09:15:24;;;;;;;5.53;1.65;;;10.20;66.00;;;;;;5036247;28;20032;-78
2022/02/19 09:17:51;;;;;;;4.78;1.05;;;10.30;65.50;;;;;;5018912;28;20022;-79
2022/02/19 09:20:19;;;;;;;3.83;1.73;;;10.40;65.60;;;;;;5019226;28;20064;-78
2022/02/19 09:22:46;;;;;;;3.00;1.30;;;10.50;65.80;;;;;;5037622;28;20080;-78
2022/02/19 09:25:12;;;;;;;4.72;1.17;;;10.70;66.00;;;;;;5050266;28;20499;-78
2022/02/19 09:27:39;;;;;;;4.30;1.20;;;10.80;66.10;;;;;;5044256;28;20036;-78
2022/02/19 09:30:07;;;;;;;3.13;1.08;;;10.90;66.20;;;;;;5039852;28;20024;-79
2022/02/19 09:32:33;;;;;;;6.63;1.20;;;11.00;66.30;;;;;;5027125;28;20159;-80
2022/02/19 09:34:59;;;;;;;3.33;0.95;;;11.10;66.40;;;;;;5013377;28;20025;-79
2022/02/19 09:37:28;;;;;;;7.05;1.17;;;11.20;66.40;;;;;;5004687;28;20025;-82
2022/02/19 09:39:55;;;;;;;5.20;1.10;;;11.20;66.20;;;;;;5014745;28;20052;-85
2022/02/19 09:42:22;;;;;;;5.20;0.93;;;11.10;66.00;;;;;;5016645;28;20718;-84
2022/02/19 09:44:49;;;;;;;5.18;1.48;;;11.10;66.10;;;;;;5034165;28;20107;-82
2022/02/19 09:47:25;;;;;;;5.18;1.45;;;11.00;66.00;;;;;;5046744;28;20444;-80
2022/02/19 09:49:52;;;;;;;7.18;1.88;;;10.90;66.00;;;;;;5043021;28;20443;-79
2022/02/19 09:52:18;;;;;;;4.13;1.02;;;10.80;65.90;;;;;;5020464;28;20037;-77
2022/02/19 09:54:44;;;;;;;4.72;2.10;;;10.70;65.80;;;;;;5040637;28;20456;-77
2022/02/19 09:57:10;;;;;;;5.47;1.65;;;10.60;65.80;;;;;;5042856;28;20052;-78
2022/02/19 09:59:36;;;;;;;5.38;1.48;;;10.50;65.70;;;;;;5015730;28;20563;-78
2022/02/19 10:02:05;;;;;;;6.07;1.30;;;10.40;65.60;;;;;;5050236;28;20036;-79
2022/02/19 10:04:31;;;;;;;4.55;1.85;;;10.40;65.70;;;;;;5049995;28;20064;-79
2022/02/19 10:07:01;;;;;;;3.83;1.17;;;10.30;65.70;;;;;;5049853;28;20343;-83
2022/02/19 10:09:28;;;;;;;5.45;1.65;;;10.30;65.80;;;;;;5015327;28;20029;-77
2022/02/19 10:12:06;;;;;;;3.05;1.25;;;10.20;65.60;;;;;;5049048;28;20430;-78
2022/02/19 10:14:35;;;;;;;5.68;1.30;;;10.10;65.50;;;;;;5044335;28;20239;-79
2022/02/19 10:17:15;;;;;;;5.38;1.27;;;10.10;65.50;;;;;;5026195;28;20107;-78
2022/02/19 10:19:57;;;;;;;7.20;1.83;;;10.00;65.30;;;;;;5046985;28;20525;-79
2022/02/19 10:22:25;;;;;;;7.63;2.10;;;10.00;65.80;;;;;;5016277;28;20041;-82
2022/02/19 10:24:59;;;;;;;5.55;2.78;;;9.90;65.20;;;;;;5029656;28;20025;-85
2022/02/19 10:27:45;;;;;;;6.00;1.73;;;9.90;65.20;;;;;;5034141;28;20503;-83
2022/02/19 10:30:18;;;;;;;4.60;1.48;;;9.90;65.70;;;;;;5013088;28;20045;-83
2022/02/19 10:32:46;;;;;;;6.80;1.45;;;10.00;66.30;;;;;;5037215;28;20135;-80
2022/02/19 10:35:12;;;;;;;10.50;2.58;;;10.20;67.00;;;;;;5021774;28;20033;-81
2022/02/19 10:37:48;;;;;;;9.50;2.17;;;10.40;67.20;;;;;;5014656;28;20029;-81
2022/02/19 10:40:36;;;;;;;5.80;1.60;;;10.50;67.30;;;;;;5047786;28;20037;-81
2022/02/19 10:43:05;;;;;;;6.22;1.33;;;10.60;67.20;;;;;;5023233;28;20200;-81
2022/02/19 10:45:33;;;;;;;6.38;1.77;;;10.70;67.20;;;;;;5042917;28;20029;-79
2022/02/19 10:48:17;;;;;;;6.10;1.70;;;10.70;67.10;;;;;;5046709;28;20159;-80
2022/02/19 10:50:50;;;;;;;7.63;1.67;;;10.80;67.30;;;;;;5051087;28;20079;-81
2022/02/19 10:53:27;;;;;;;4.90;1.33;;;10.90;67.40;;;;;;5029190;28;20048;-82
2022/02/19 10:55:54;;;;;;;7.18;1.70;;;10.90;67.40;;;;;;5032344;28;20103;-78
2022/02/19 10:58:21;;;;;;;9.05;1.65;;;10.90;67.30;;;;;;5015985;28;20030;-83
2022/02/19 11:00:48;;;;;;;8.00;1.90;;;10.90;67.20;;;;;;4999809;28;20037;-82
2022/02/19 11:03:16;;;;;;;7.97;1.52;;;11.00;67.40;;;;;;5041864;28;20029;-78
2022/02/19 11:05:42;;;;;;;8.13;2.03;;;11.00;67.40;;;;;;5032160;28;20484;-80
2022/02/19 11:08:09;;;;;;;8.38;2.10;;;11.00;67.40;;;;;;5032105;28;20036;-81
2022/02/19 11:10:37;;;;;;;5.25;1.25;;;11.10;67.50;;;;;;5014906;28;20033;-83
2022/02/19 11:13:04;;;;;;;8.18;1.92;;;11.10;67.40;;;;;;5024193;28;20128;-82
2022/02/19 11:15:30;;;;;;;6.07;2.45;;;11.20;67.50;;;;;;5040564;28;20033;-80
2022/02/19 11:17:56;;;;;;;10.40;3.88;;;11.20;67.50;;;;;;5014833;28;20029;-79
2022/02/19 11:20:24;;;;;;;13.25;2.47;;;11.30;67.60;;;;;;5028534;28;20129;-80
2022/02/19 11:22:54;;;;;;;9.50;2.08;;;11.30;67.50;;;;;;5040171;28;20025;-83
2022/02/19 11:25:23;;;;;;;5.88;1.63;;;11.50;67.70;;;;;;5029452;28;20282;-80
2022/02/19 11:27:59;;;;;;;4.63;1.77;;;11.60;67.70;;;;;;5027982;28;20025;-81
2022/02/19 11:30:28;;;;;;;6.65;1.65;;;11.70;67.70;;;;;;5030667;28;20036;-79
2022/02/19 11:32:56;;;;;;;5.28;1.17;;;11.70;67.50;;;;;;5029270;28;20029;-80
2022/02/19 11:35:37;;;;;;;4.80;2.05;;;11.90;67.70;;;;;;5021217;28;20020;-78
2022/02/19 11:38:26;;;;;;;4.88;1.20;;;12.00;67.70;;;;;;5030942;28;20392;-79
2022/02/19 11:41:00;;;;;;;6.43;1.85;;;12.10;67.60;;;;;;5012461;28;20041;-78
2022/02/19 11:43:31;;;;;;;6.13;1.58;;;12.20;67.70;;;;;;5030795;28;20053;-77
2022/02/19 11:48:28;;;;;;;6.68;2.45;;;12.30;67.60;;;;;;5034205;28;20065;-83
2022/02/19 11:51:29;;;;;;;2.58;1.20;;;12.40;67.70;;;;;;5010755;28;20658;-76
2022/02/19 11:54:02;;;;;;;4.80;1.00;;;12.50;67.70;;;;;;5031234;28;20884;-81
2022/02/19 11:56:32;;;;;;;;;;;12.60;67.70;;;;;;5032405;28;20127;-81
2022/02/19 11:59:03;;;;;;;6.78;2.03;;;12.70;67.60;;;;;;5046878;28;19924;-81
2022/02/19 12:01:30;;;;;;;8.30;1.80;;;12.80;67.60;;;;;;5049125;28;20037;-80
2022/02/19 12:04:17;;;;;;;6.25;1.50;;;12.80;67.60;;;;;;5048612;28;20043;-80
2022/02/19 12:06:45;;;;;;;9.15;1.73;;;12.90;67.80;;;;;;5030707;28;20033;-82
2022/02/19 12:09:17;;;;;;;6.97;1.98;;;12.80;67.70;;;;;;5030373;28;20033;-82
2022/02/19 12:12:07;;;;;;;5.03;1.33;;;12.90;67.90;;;;;;5050386;28;20072;-80
2022/02/19 12:14:43;;;;;;;5.38;1.38;;;12.90;68.00;;;;;;5044170;28;20104;-81
2022/02/19 12:17:10;;;;;;;5.03;1.77;;;13.00;68.00;;;;;;5043109;28;20808;-85
2022/02/19 12:19:52;;;;;;;11.07;2.05;;;13.00;68.10;;;;;;5042525;28;20048;-82
2022/02/19 12:22:49;;;;;;;6.55;1.52;;;13.10;68.50;;;;;;5039282;28;20033;-93
2022/02/19 12:25:18;;;;;;;6.45;1.17;;;13.10;68.60;;;;;;5023605;28;20112;-92
2022/02/19 12:28:17;;;;;;;6.88;1.60;;;13.10;68.70;;;;;;5009993;28;20044;-95
2022/02/19 12:30:47;;;;;;;6.07;1.65;;;13.10;69.30;;;;;;5036254;28;20063;-79
2022/02/19 12:33:13;;;;;;;8.82;1.42;;;13.20;69.30;;;;;;5036622;28;20040;-79
2022/02/19 12:35:45;;;;;;;4.95;1.63;;;13.30;69.50;;;;;;5053014;28;20103;-81
2022/02/19 12:38:14;;;;;;;7.18;1.10;;;13.40;69.70;;;;;;5020478;28;20024;-80
2022/02/19 12:40:41;;;;;;;4.35;1.10;;;13.60;69.80;;;;;;5036019;28;20124;-82
2022/02/19 12:43:17;;;;;;;3.65;1.00;;;13.80;69.90;;;;;;5041806;28;20022;-85
2022/02/19 12:45:44;;;;;;;7.13;1.20;;;13.90;69.70;;;;;;5022456;28;20040;-83
2022/02/19 12:48:11;;;;;;;6.10;1.30;;;14.00;69.50;;;;;;5006843;28;20481;-83
2022/02/19 12:50:37;;;;;;;5.63;1.13;;;14.10;69.30;;;;;;5041174;28;20025;-79
2022/02/19 12:53:03;;;;;;;3.55;0.75;;;14.20;69.20;;;;;;5028714;28;20028;-80
2022/02/19 12:55:29;;;;;;;5.22;1.50;;;14.20;69.00;;;;;;5041208;28;20468;-78
2022/02/19 12:58:01;;;;;;;7.45;1.60;;;14.30;69.00;;;;;;5032596;28;20511;-79
2022/02/19 13:00:28;;;;;;;6.75;1.27;;;14.40;69.10;;;;;;5039815;28;20037;-79
2022/02/19 13:03:00;;;;;;;9.23;2.97;;;14.50;69.00;;;;;;5022097;28;20380;-84
2022/02/19 13:05:27;;;;;;;11.57;2.20;;;14.60;69.00;;;;;;5032037;28;20028;-85
2022/02/19 13:10:22;;;;;;;13.90;2.35;;;14.80;68.90;;;;;;5043611;28;20966;-85
2022/02/19 13:12:49;;;;;;;19.23;4.18;;;14.90;69.10;;;;;;5011512;28;20029;-84
2022/02/19 13:15:16;;;;;;;11.07;3.20;;;14.90;69.00;;;;;;5026661;28;20049;-84
2022/02/19 13:17:43;;;;;;;22.27;3.67;;;15.00;69.10;;;;;;5049698;28;20395;-80
2022/02/19 13:20:16;;;;;;;20.58;4.93;;;15.20;69.20;;;;;;5049815;28;20037;-81
2022/02/19 13:22:48;;;;;;;13.13;3.08;;;15.30;69.20;;;;;;5056006;28;20031;-80
2022/02/19 13:25:16;;;;;;;16.02;4.15;;;15.40;69.10;;;;;;5034202;28;20067;-78